Time;durP1;ratioP1;P1;durP2;ratioP2;P2;SDS_P1;SDS_P2;PMS_P1;PMS_P2;Temp;Humidity;BMP_temperature;BMP_pressure;BME280_temperature;BME280_humidity;BME280_pressure;Samples;Min_cycle;Max_cycle;Signal;HPM_P1;HPM_P2
2023/07/22 00:00:52;;;;;;;13.65;8.40;;;12.30;99.90;;;12.37;100.00;100331.13;4997113;28;20053;-75
2023/07/22 00:03:17;;;;;;;12.80;8.70;;;12.30;99.90;;;12.33;100.00;100325.31;4991407;28;20050;-78
2023/07/22 00:05:43;;;;;;;10.85;8.35;;;12.20;99.90;;;12.31;100.00;100321.97;4993689;28;20043;-76
2023/07/22 00:08:09;;;;;;;11.70;8.60;;;12.20;99.90;;;12.25;100.00;100324.84;4994342;28;20524;-75
2023/07/22 00:10:35;;;;;;;12.70;8.40;;;12.20;99.90;;;12.14;100.00;100324.56;4978703;28;20062;-75
2023/07/22 00:13:02;;;;;;;11.98;8.43;;;12.10;99.90;;;12.17;100.00;100329.56;4991657;28;20035;-75
2023/07/22 00:15:27;;;;;;;12.27;8.30;;;12.10;99.90;;;12.22;100.00;100316.03;4992105;28;20043;-76
2023/07/22 00:17:53;;;;;;;13.30;8.48;;;12.00;99.90;;;12.25;100.00;100327.56;5006457;28;20070;-76
2023/07/22 00:20:20;;;;;;;15.23;9.20;;;12.00;99.90;;;12.10;100.00;100333.50;4992721;28;20039;-75
2023/07/22 00:22:46;;;;;;;15.32;9.32;;;11.90;99.90;;;12.30;100.00;100335.91;4986672;28;20035;-75
2023/07/22 00:25:12;;;;;;;14.35;9.48;;;11.90;99.90;;;12.30;100.00;100338.63;4990499;28;20081;-76
2023/07/22 00:27:40;;;;;;;15.80;10.20;;;11.90;99.90;;;12.04;100.00;100327.06;4991348;28;20069;-76
2023/07/22 00:30:10;;;;;;;15.52;9.48;;;11.90;99.90;;;12.03;100.00;100334.41;4990256;28;20037;-75
2023/07/22 00:32:40;;;;;;;14.68;9.38;;;11.80;99.90;;;11.95;100.00;100323.78;4991661;28;20043;-75
2023/07/22 00:35:07;;;;;;;14.18;9.35;;;11.80;99.90;;;11.96;100.00;100330.09;4991511;28;20054;-75
2023/07/22 00:37:33;;;;;;;17.90;9.93;;;11.80;99.90;;;12.21;100.00;100344.44;4990205;28;20050;-76
2023/07/22 00:40:05;;;;;;;15.25;9.60;;;11.90;99.90;;;12.51;100.00;100340.78;4991782;28;20486;-76
2023/07/22 00:42:31;;;;;;;16.88;10.52;;;12.00;99.90;;;12.17;100.00;100343.22;4991838;28;20069;-76
2023/07/22 00:44:57;;;;;;;14.73;9.85;;;12.10;99.90;;;12.31;100.00;100352.06;4986835;28;20505;-76
2023/07/22 00:47:23;;;;;;;16.33;9.95;;;12.10;99.90;;;12.55;100.00;100349.34;4991030;28;20054;-76
2023/07/22 00:49:51;;;;;;;16.45;9.55;;;12.20;99.90;;;12.50;100.00;100350.06;5006840;28;20438;-76
2023/07/22 00:52:17;;;;;;;16.50;9.82;;;12.10;99.90;;;12.54;100.00;100363.28;5006334;28;20554;-76
2023/07/22 00:54:44;;;;;;;18.10;10.05;;;12.10;99.90;;;12.22;100.00;100361.69;4990278;28;20031;-76
2023/07/22 00:57:11;;;;;;;16.25;10.18;;;12.10;99.90;;;12.36;100.00;100360.41;4988818;28;20066;-76
2023/07/22 00:59:40;;;;;;;15.60;9.20;;;12.10;99.90;;;12.35;100.00;100363.38;4990870;28;20045;-76
2023/07/22 01:02:06;;;;;;;13.55;9.32;;;12.00;99.90;;;12.13;100.00;100358.44;5005374;28;20038;-76
2023/07/22 01:04:35;;;;;;;15.68;9.85;;;12.00;99.90;;;12.36;100.00;100354.09;4991751;28;20513;-76
2023/07/22 01:07:06;;;;;;;18.52;10.20;;;12.00;99.90;;;12.09;100.00;100349.06;4990379;28;20031;-76
2023/07/22 01:09:40;;;;;;;17.35;9.32;;;12.00;99.90;;;12.48;100.00;100344.00;5005022;28;20050;-76
2023/07/22 01:12:08;;;;;;;16.00;9.50;;;12.00;99.90;;;12.14;100.00;100346.44;4988483;28;20030;-76
2023/07/22 01:14:41;;;;;;;17.80;10.05;;;12.10;99.90;;;12.19;100.00;100337.53;4990366;28;20049;-76
2023/07/22 01:17:10;;;;;;;16.70;9.60;;;12.10;99.90;;;12.17;100.00;100340.50;4989634;28;20030;-76
2023/07/22 01:19:35;;;;;;;15.23;9.13;;;12.10;99.90;;;12.26;100.00;100345.66;4978492;28;20042;-76
2023/07/22 01:22:05;;;;;;;15.40;9.20;;;12.10;99.90;;;12.20;100.00;100348.25;4988863;28;20038;-76
2023/07/22 01:24:31;;;;;;;18.40;9.00;;;12.10;99.90;;;12.19;100.00;100362.16;4989593;28;20042;-76
2023/07/22 01:26:58;;;;;;;16.67;9.20;;;12.10;99.90;;;12.22;100.00;100359.78;4983612;28;20034;-76
2023/07/22 01:29:24;;;;;;;16.55;9.10;;;12.20;99.90;;;12.25;100.00;100357.66;4989436;28;20049;-76
2023/07/22 01:31:53;;;;;;;15.10;8.95;;;12.20;99.90;;;12.18;100.00;100349.53;4990865;28;20034;-76
2023/07/22 01:34:20;;;;;;;16.02;8.77;;;12.20;99.90;;;12.21;100.00;100360.88;4990745;28;20046;-76
2023/07/22 01:36:48;;;;;;;17.27;9.50;;;12.10;99.90;;;12.23;100.00;100357.88;4990161;28;20092;-76
2023/07/22 01:39:15;;;;;;;;;;;12.20;99.90;;;12.36;100.00;100354.09;4989490;28;20081;-76
2023/07/22 01:41:41;;;;;;;15.75;9.07;;;12.20;99.90;;;12.33;100.00;100352.69;4988640;28;19925;-76
2023/07/22 01:44:07;;;;;;;15.27;8.73;;;12.20;99.90;;;12.36;100.00;100363.16;4989722;28;20034;-76
2023/07/22 01:46:34;;;;;;;17.23;9.40;;;12.10;99.90;;;12.39;100.00;100363.75;4976638;28;20131;-76
2023/07/22 01:49:01;;;;;;;14.90;9.13;;;12.20;99.90;;;12.19;100.00;100353.94;4986534;28;20053;-76
2023/07/22 01:51:27;;;;;;;17.10;9.23;;;12.10;99.90;;;12.93;100.00;100369.94;4973851;28;20026;-76
2023/07/22 01:53:56;;;;;;;18.45;9.70;;;12.10;99.90;;;12.74;100.00;100376.59;4988571;28;20100;-76
2023/07/22 01:56:22;;;;;;;17.48;8.68;;;12.10;99.90;;;12.36;100.00;100387.75;5004879;28;20038;-76
2023/07/22 01:58:48;;;;;;;16.33;9.30;;;12.10;99.90;;;12.09;100.00;100357.25;4963418;28;20100;-76
2023/07/22 02:01:16;;;;;;;18.02;9.88;;;12.00;99.90;;;12.31;100.00;100381.31;4961050;28;20073;-76
2023/07/22 02:03:42;;;;;;;13.65;8.88;;;12.00;99.90;;;12.13;100.00;100374.03;4972504;28;20402;-76
2023/07/22 02:06:08;;;;;;;18.23;9.80;;;11.90;99.90;;;12.26;100.00;100365.59;4982200;28;20030;-76
2023/07/22 02:08:35;;;;;;;17.33;8.57;;;11.90;99.90;;;12.05;100.00;100362.34;4987870;28;20763;-76
2023/07/22 02:11:05;;;;;;;19.42;9.00;;;11.80;99.90;;;11.99;100.00;100365.16;4988879;28;20038;-76
2023/07/22 02:13:31;;;;;;;16.10;8.27;;;11.80;99.90;;;11.74;100.00;100339.63;5002853;28;20030;-76
2023/07/22 02:15:57;;;;;;;22.00;10.65;;;11.70;99.90;;;12.01;100.00;100363.06;4987434;28;20509;-76
2023/07/22 02:18:23;;;;;;;16.38;8.57;;;11.60;99.90;;;11.85;100.00;100354.41;4989769;28;20046;-76
2023/07/22 02:20:49;;;;;;;16.92;8.25;;;11.60;99.90;;;11.77;100.00;100368.41;4990475;28;20083;-75
2023/07/22 02:23:15;;;;;;;16.38;8.70;;;11.60;99.90;;;11.71;100.00;100366.63;4988765;28;20038;-76
2023/07/22 02:25:40;;;;;;;18.63;8.68;;;11.50;99.90;;;12.09;100.00;100365.47;4993316;28;20038;-76
2023/07/22 02:28:06;;;;;;;14.15;8.38;;;11.50;99.90;;;12.12;100.00;100372.38;5004210;28;20030;-76
2023/07/22 02:30:36;;;;;;;15.98;8.68;;;11.50;99.90;;;12.00;100.00;100375.03;4999898;28;20066;-76
2023/07/22 02:33:05;;;;;;;15.38;8.30;;;11.50;99.90;;;11.59;100.00;100381.03;4989661;28;20424;-76
2023/07/22 02:35:31;;;;;;;16.58;8.38;;;11.40;99.90;;;11.51;100.00;100367.72;4987780;28;20169;-76
2023/07/22 02:37:57;;;;;;;18.27;9.05;;;11.40;99.90;;;11.50;100.00;100361.41;4989582;28;20026;-76
2023/07/22 02:40:23;;;;;;;18.98;8.57;;;11.40;99.90;;;11.53;100.00;100362.84;5002316;28;20049;-76
2023/07/22 02:42:49;;;;;;;17.08;8.60;;;11.30;99.90;;;11.44;100.00;100350.56;4975153;28;20035;-76
2023/07/22 02:45:14;;;;;;;15.40;8.68;;;11.40;99.90;;;11.49;100.00;100348.81;4987745;28;20030;-76
2023/07/22 02:47:40;;;;;;;17.20;9.40;;;11.40;99.90;;;12.00;100.00;100347.69;4989496;28;20096;-75
2023/07/22 02:50:07;;;;;;;19.13;9.55;;;11.40;99.90;;;12.06;100.00;100368.66;4984080;28;20103;-76
2023/07/22 02:52:33;;;;;;;16.65;9.00;;;11.40;99.90;;;11.86;100.00;100368.94;4984895;28;20035;-76
2023/07/22 02:55:14;;;;;;;16.20;9.02;;;11.40;99.90;;;11.64;100.00;100374.91;4978749;28;20030;-75
2023/07/22 02:57:42;;;;;;;17.38;8.75;;;11.40;99.90;;;11.55;100.00;100373.56;4992238;28;20387;-75
2023/07/22 03:00:08;;;;;;;17.60;8.40;;;11.40;99.90;;;11.57;100.00;100372.25;4989236;28;20390;-76
2023/07/22 03:02:35;;;;;;;16.77;9.45;;;11.40;99.90;;;11.59;100.00;100372.84;4991219;28;20042;-75
2023/07/22 03:05:06;;;;;;;16.75;9.00;;;11.40;99.90;;;11.61;100.00;100367.97;4994045;28;20390;-76
2023/07/22 03:07:32;;;;;;;16.60;8.32;;;11.40;99.90;;;11.59;100.00;100363.84;4985368;28;20038;-76
2023/07/22 03:09:57;;;;;;;18.73;8.95;;;11.50;99.90;;;11.75;100.00;100368.63;4991925;28;20441;-76
2023/07/22 03:12:24;;;;;;;15.48;8.68;;;11.50;99.90;;;11.60;100.00;100363.59;5008340;28;20042;-76
2023/07/22 03:14:50;;;;;;;18.05;9.13;;;11.50;99.90;;;11.62;100.00;100377.84;4988109;28;20494;-75
2023/07/22 03:17:18;;;;;;;16.90;8.68;;;11.40;99.90;;;11.56;100.00;100364.28;5007361;28;20368;-75
2023/07/22 03:19:44;;;;;;;16.83;8.98;;;11.40;99.90;;;11.56;100.00;100364.28;4988317;28;20479;-75
2023/07/22 03:22:14;;;;;;;18.63;10.20;;;11.40;99.90;;;11.45;100.00;100357.72;4991932;28;20117;-76
2023/07/22 03:24:39;;;;;;;17.85;9.15;;;11.30;99.90;;;11.45;100.00;100368.63;4998719;28;20038;-76
2023/07/22 03:27:06;;;;;;;20.00;9.57;;;11.30;99.90;;;11.46;100.00;100373.84;4991817;28;20041;-76
2023/07/22 03:29:33;;;;;;;16.60;9.73;;;11.30;99.90;;;11.44;100.00;100370.50;4985858;28;20038;-76
2023/07/22 03:31:59;;;;;;;19.75;9.60;;;11.30;99.90;;;11.47;100.00;100367.31;4990311;28;20042;-76
2023/07/22 03:34:30;;;;;;;21.45;10.10;;;11.30;99.90;;;11.51;100.00;100375.91;5006054;28;20039;-75
2023/07/22 03:36:55;;;;;;;20.05;9.85;;;11.30;99.90;;;11.51;100.00;100375.91;4991486;28;20496;-75
2023/07/22 03:39:22;;;;;;;20.63;10.85;;;11.30;99.90;;;11.46;100.00;100382.03;4991601;28;20038;-76
2023/07/22 03:41:47;;;;;;;18.30;9.63;;;11.30;99.90;;;11.66;100.00;100387.25;4990264;28;20438;-76
2023/07/22 03:44:14;;;;;;;17.95;10.48;;;11.40;99.90;;;11.77;100.00;100393.00;4991515;28;20050;-76
2023/07/22 03:46:39;;;;;;;19.40;9.52;;;11.40;99.90;;;11.51;100.00;100395.03;4989885;28;20054;-76
2023/07/22 03:49:05;;;;;;;18.85;11.00;;;11.30;99.90;;;11.62;100.00;100394.25;4990530;28;20042;-76
2023/07/22 03:51:31;;;;;;;19.05;10.43;;;11.40;99.90;;;11.62;100.00;100390.69;4991426;28;20033;-75
2023/07/22 03:53:57;;;;;;;19.90;10.35;;;11.40;99.90;;;11.55;100.00;100389.94;5001750;28;20042;-77
2023/07/22 03:56:25;;;;;;;19.40;10.70;;;11.40;99.90;;;11.48;100.00;100379.09;4982129;28;20504;-77
2023/07/22 03:58:52;;;;;;;21.25;10.85;;;11.40;99.90;;;11.57;100.00;100383.16;4982623;28;20045;-77
2023/07/22 04:01:18;;;;;;;20.95;10.90;;;11.40;99.90;;;11.58;100.00;100390.31;4992692;28;20129;-77
2023/07/22 04:03:45;;;;;;;22.73;11.65;;;11.50;99.90;;;11.59;100.00;100388.41;4988121;28;20047;-77
2023/07/22 04:06:10;;;;;;;21.30;10.50;;;11.50;99.90;;;11.74;100.00;100391.56;4988862;28;20060;-78
2023/07/22 04:08:36;;;;;;;21.00;10.73;;;11.60;99.90;;;11.73;100.00;100387.16;4989494;28;20116;-78
2023/07/22 04:11:02;;;;;;;21.52;11.40;;;11.70;99.90;;;11.82;100.00;100392.31;4995603;28;20522;-77
2023/07/22 04:13:29;;;;;;;19.13;10.68;;;11.70;99.90;;;11.89;100.00;100404.00;4991284;28;20042;-77
2023/07/22 04:15:54;;;;;;;19.15;10.73;;;11.80;99.90;;;11.96;100.00;100407.47;4990336;28;20053;-78
2023/07/22 04:18:21;;;;;;;19.40;10.63;;;11.90;99.90;;;12.05;100.00;100410.75;4986429;28;20070;-78
2023/07/22 04:20:50;;;;;;;20.35;10.32;;;12.00;99.90;;;12.16;100.00;100420.06;4990801;28;20085;-79
2023/07/22 04:23:16;;;;;;;18.80;9.93;;;12.00;99.90;;;12.21;100.00;100420.19;4987224;28;20554;-79
2023/07/22 04:25:44;;;;;;;19.83;10.75;;;12.10;99.90;;;12.31;100.00;100427.81;4987503;28;20035;-78
2023/07/22 04:28:10;;;;;;;19.60;9.88;;;12.20;99.90;;;12.35;100.00;100429.88;4989548;28;20046;-78
2023/07/22 04:30:37;;;;;;;18.55;9.93;;;12.30;99.90;;;12.45;100.00;100431.19;4990414;28;20058;-78
2023/07/22 04:33:05;;;;;;;20.58;10.13;;;12.30;99.90;;;12.57;100.00;100450.38;4989106;28;20208;-78
2023/07/22 04:35:37;;;;;;;20.27;9.75;;;12.50;99.90;;;12.61;100.00;100457.03;4985038;28;20049;-79
2023/07/22 04:38:03;;;;;;;16.35;9.55;;;12.60;99.90;;;12.69;100.00;100453.94;4990979;28;20409;-77
2023/07/22 04:40:30;;;;;;;16.52;9.07;;;12.60;99.90;;;12.75;100.00;100466.72;4995546;28;20117;-78
2023/07/22 04:42:56;;;;;;;18.67;9.35;;;12.80;99.90;;;12.83;100.00;100468.25;4989669;28;20030;-79
2023/07/22 04:45:25;;;;;;;17.38;8.63;;;12.80;99.90;;;12.92;100.00;100474.22;4977393;28;20042;-78
2023/07/22 04:47:51;;;;;;;18.40;8.60;;;12.90;99.90;;;12.96;100.00;100480.88;4986212;28;20526;-78
2023/07/22 04:50:18;;;;;;;15.30;8.60;;;13.00;99.90;;;13.06;100.00;100485.75;4990238;28;20041;-78
2023/07/22 04:52:47;;;;;;;16.67;7.60;;;13.00;99.90;;;13.15;100.00;100499.94;4991388;28;20026;-80
2023/07/22 04:55:13;;;;;;;15.43;7.80;;;13.10;99.90;;;13.15;100.00;100505.41;4991020;28;20061;-78
2023/07/22 04:57:41;;;;;;;17.63;7.78;;;13.10;99.90;;;13.24;100.00;100517.69;4985555;28;20034;-79
2023/07/22 05:00:16;;;;;;;18.30;7.95;;;13.20;99.90;;;13.21;100.00;100507.19;4990503;28;20026;-80
2023/07/22 05:02:48;;;;;;;13.25;8.18;;;13.20;99.90;;;13.20;100.00;100513.75;4990231;28;20038;-80
2023/07/22 05:05:15;;;;;;;13.70;7.95;;;13.20;99.90;;;13.31;100.00;100515.69;4990214;28;20049;-79
2023/07/22 05:07:42;;;;;;;15.13;8.30;;;13.30;99.90;;;13.40;100.00;100518.91;4983187;28;20034;-78
2023/07/22 05:10:12;;;;;;;14.50;7.53;;;13.30;99.90;;;13.52;100.00;100518.88;4990585;28;20042;-77
2023/07/22 05:12:42;;;;;;;12.52;7.47;;;13.50;99.90;;;13.69;100.00;100527.25;4990538;28;20045;-80
2023/07/22 05:15:10;;;;;;;14.82;7.65;;;13.60;99.90;;;13.64;100.00;100530.69;4988967;28;20088;-80
2023/07/22 05:17:36;;;;;;;18.73;7.97;;;13.70;99.90;;;13.78;100.00;100530.41;4990480;28;20062;-81
2023/07/22 05:20:03;;;;;;;13.35;7.50;;;13.70;99.90;;;13.75;100.00;100534.50;5004944;28;20136;-80
2023/07/22 05:22:29;;;;;;;14.52;7.75;;;13.80;99.90;;;13.83;100.00;100530.56;4988629;28;20085;-81
2023/07/22 05:24:55;;;;;;;17.52;8.32;;;13.80;99.90;;;13.92;100.00;100537.31;4989663;28;20544;-79
2023/07/22 05:27:21;;;;;;;14.82;7.88;;;13.90;99.90;;;14.00;100.00;100551.72;4989705;28;20057;-79
2023/07/22 05:29:47;;;;;;;17.35;7.80;;;14.00;99.90;;;14.06;100.00;100545.28;4993304;28;20478;-80
2023/07/22 05:32:13;;;;;;;13.27;7.00;;;14.00;99.90;;;14.20;100.00;100543.91;4988562;28;20034;-78
2023/07/22 05:34:39;;;;;;;12.85;6.70;;;14.10;99.90;;;14.24;100.00;100556.06;4990615;28;20038;-78
2023/07/22 05:37:05;;;;;;;15.00;7.60;;;14.20;99.90;;;14.29;100.00;100555.34;4982435;28;20061;-77
2023/07/22 05:39:30;;;;;;;14.23;6.90;;;14.20;99.90;;;14.28;100.00;100552.81;4990732;28;20069;-79
2023/07/22 05:41:56;;;;;;;14.43;7.10;;;14.20;99.90;;;14.31;100.00;100557.81;4989918;28;20101;-79
2023/07/22 05:44:22;;;;;;;11.63;7.03;;;14.30;99.90;;;14.41;100.00;100560.78;4990434;28;20035;-80
2023/07/22 05:46:48;;;;;;;14.27;7.28;;;14.30;99.90;;;14.41;100.00;100555.31;4985700;28;20062;-78
2023/07/22 05:49:13;;;;;;;13.85;7.20;;;14.40;99.90;;;14.47;100.00;100565.28;4988194;28;20037;-78
2023/07/22 05:51:39;;;;;;;12.63;6.90;;;14.40;99.90;;;14.69;100.00;100570.09;4990663;28;20042;-77
2023/07/22 05:54:05;;;;;;;14.50;7.00;;;14.60;99.90;;;14.72;100.00;100572.38;4977087;28;20517;-76
2023/07/22 05:56:31;;;;;;;11.63;6.55;;;14.60;99.90;;;14.79;100.00;100581.28;4989814;28;20394;-79
2023/07/22 05:58:57;;;;;;;12.98;6.82;;;14.70;99.90;;;14.82;100.00;100572.56;4980624;28;20039;-81
2023/07/22 06:01:24;;;;;;;14.07;6.40;;;14.70;99.90;;;14.87;100.00;100576.50;4983512;28;20046;-81
2023/07/22 06:03:50;;;;;;;16.77;6.53;;;14.80;99.90;;;14.89;100.00;100577.91;4987481;28;20042;-80
2023/07/22 06:06:16;;;;;;;10.40;5.90;;;14.80;99.90;;;14.93;100.00;100583.72;4987942;28;20058;-83
2023/07/22 06:08:42;;;;;;;12.45;7.28;;;14.90;99.90;;;14.93;100.00;100583.72;4986474;28;20806;-79
2023/07/22 06:11:08;;;;;;;14.75;6.70;;;14.90;99.90;;;15.08;100.00;100586.72;4988457;28;20046;-80
2023/07/22 06:13:33;;;;;;;12.77;6.72;;;15.10;99.90;;;15.10;100.00;100584.56;4980246;28;20042;-79
2023/07/22 06:15:59;;;;;;;13.90;7.07;;;15.10;99.90;;;15.16;100.00;100596.50;4989747;28;20034;-81
2023/07/22 06:18:25;;;;;;;13.13;6.63;;;15.20;99.90;;;15.14;100.00;100587.66;4985973;28;20126;-82
2023/07/22 06:20:51;;;;;;;13.20;7.03;;;15.30;99.90;;;15.31;100.00;100592.34;4980316;28;20043;-80
2023/07/22 06:23:17;;;;;;;12.40;6.38;;;15.30;99.90;;;15.39;100.00;100601.00;4987268;28;20053;-81
2023/07/22 06:25:43;;;;;;;11.60;6.55;;;15.40;99.90;;;15.47;100.00;100601.66;5002330;28;20034;-82
2023/07/22 06:28:09;;;;;;;12.60;6.43;;;15.50;99.90;;;15.47;100.00;100574.16;4988186;28;20037;-81
2023/07/22 06:30:35;;;;;;;10.77;6.40;;;15.70;99.90;;;15.74;100.00;100603.72;4982631;28;20046;-81
2023/07/22 06:33:00;;;;;;;12.63;6.63;;;15.80;99.90;;;16.02;100.00;100610.19;4991899;28;20030;-81
2023/07/22 06:35:26;;;;;;;15.70;6.32;;;16.00;99.90;;;16.23;100.00;100603.03;4995454;28;20490;-82
2023/07/22 06:37:52;;;;;;;12.15;6.70;;;16.30;99.90;;;16.49;100.00;100604.19;4976746;28;20129;-80
2023/07/22 06:40:18;;;;;;;10.77;6.43;;;16.50;99.90;;;16.81;100.00;100611.69;5010156;28;20037;-82
2023/07/22 06:42:44;;;;;;;11.30;6.78;;;16.70;99.90;;;16.67;100.00;100596.63;4997556;28;20343;-80
2023/07/22 06:45:10;;;;;;;10.23;6.22;;;16.70;99.90;;;16.70;100.00;100603.56;4993312;28;20038;-81
2023/07/22 06:47:37;;;;;;;11.27;6.93;;;16.80;99.90;;;16.95;100.00;100605.72;4990545;28;20600;-83
2023/07/22 06:50:06;;;;;;;12.40;6.55;;;17.00;99.90;;;16.93;100.00;100607.91;4988937;28;20058;-81
2023/07/22 06:52:32;;;;;;;9.38;6.03;;;17.00;99.90;;;17.11;100.00;100609.53;4988838;28;20487;-79
2023/07/22 06:54:59;;;;;;;10.98;6.57;;;17.10;99.90;;;17.21;100.00;100603.25;4993788;28;20038;-82
2023/07/22 06:57:27;;;;;;;10.77;6.15;;;17.10;99.90;;;17.41;100.00;100605.34;4988219;28;20070;-80
2023/07/22 06:59:55;;;;;;;13.43;7.38;;;17.30;99.90;;;17.38;100.00;100614.97;4987735;28;20054;-81
2023/07/22 07:02:21;;;;;;;10.98;6.32;;;17.40;99.90;;;17.62;100.00;100608.25;4986308;28;20473;-80
2023/07/22 07:04:47;;;;;;;11.30;6.60;;;17.60;99.90;;;17.30;100.00;100598.94;4985546;28;20077;-78
2023/07/22 07:07:13;;;;;;;10.88;6.30;;;17.40;99.90;;;17.37;100.00;100588.50;4993837;28;20105;-81
2023/07/22 07:09:40;;;;;;;13.52;6.65;;;17.50;99.90;;;17.66;100.00;100601.94;4988058;28;20129;-80
2023/07/22 07:12:06;;;;;;;13.88;6.97;;;17.60;99.90;;;17.54;100.00;100596.63;4987470;28;20053;-81
2023/07/22 07:14:36;;;;;;;13.65;6.68;;;17.60;99.90;;;17.35;100.00;100596.19;4999153;28;20046;-82
2023/07/22 07:17:02;;;;;;;12.00;6.45;;;17.50;99.90;;;17.47;100.00;100603.44;4989301;28;20100;-83
2023/07/22 07:19:29;;;;;;;11.73;6.88;;;17.50;99.90;;;17.84;100.00;100599.84;4992177;28;20447;-82
2023/07/22 07:21:55;;;;;;;12.02;6.38;;;17.70;99.90;;;17.90;100.00;100598.78;4991470;28;20512;-82
2023/07/22 07:24:20;;;;;;;12.13;6.72;;;17.80;99.90;;;17.77;100.00;100605.59;4988752;28;20042;-80
2023/07/22 07:26:46;;;;;;;12.88;7.50;;;17.80;99.90;;;17.76;100.00;100603.94;4984872;28;20034;-80
2023/07/22 07:29:12;;;;;;;14.15;7.15;;;17.70;99.90;;;17.82;100.00;100599.28;4989687;28;20073;-82
2023/07/22 07:31:41;;;;;;;11.90;6.88;;;17.90;99.90;;;17.87;100.00;100596.56;4989266;28;20145;-81
2023/07/22 07:34:06;;;;;;;12.95;7.13;;;17.90;99.90;;;18.25;100.00;100600.06;4994014;28;20126;-81
2023/07/22 07:36:33;;;;;;;14.80;7.20;;;18.20;99.90;;;17.96;100.00;100603.22;4987312;28;20494;-81
2023/07/22 07:38:59;;;;;;;14.43;7.38;;;18.20;99.90;;;17.77;100.00;100604.75;4979137;28;20030;-83
2023/07/22 07:41:25;;;;;;;12.77;7.55;;;18.00;99.90;;;17.72;100.00;100615.75;4986307;28;20054;-81
2023/07/22 07:43:50;;;;;;;13.30;7.88;;;17.90;99.90;;;17.68;100.00;100621.81;5003554;28;20093;-79
2023/07/22 07:46:27;;;;;;;12.52;7.90;;;17.80;99.90;;;17.61;100.00;100621.22;4990246;28;20109;-79
2023/07/22 07:49:00;;;;;;;15.25;7.55;;;17.90;99.90;;;18.01;100.00;100616.25;4990361;28;20046;-81
2023/07/22 07:51:31;;;;;;;13.40;7.57;;;18.00;99.90;;;18.41;100.00;100616.72;4990400;28;20045;-81
2023/07/22 07:53:58;;;;;;;13.70;7.78;;;18.40;99.90;;;18.56;100.00;100610.41;4988483;28;20035;-80
2023/07/22 07:56:25;;;;;;;12.77;7.43;;;18.50;99.90;;;18.74;100.00;100619.31;4985418;28;20126;-80
2023/07/22 07:58:53;;;;;;;13.05;7.72;;;18.70;99.90;;;18.71;100.00;100612.38;4987347;28;20047;-80
2023/07/22 08:01:18;;;;;;;;;;;18.80;99.90;;;18.68;100.00;100607.41;4969532;28;20038;-82
2023/07/22 08:03:44;;;;;;;10.80;7.22;;;18.90;99.90;;;19.20;100.00;100613.03;4984644;28;19918;-83
2023/07/22 08:06:11;;;;;;;12.18;7.65;;;19.20;99.90;;;19.16;100.00;100611.94;4983795;28;20446;-82
2023/07/22 08:08:38;;;;;;;12.38;7.68;;;19.30;99.90;;;19.05;100.00;100611.09;4990675;28;20061;-80
2023/07/22 08:11:14;;;;;;;11.65;7.57;;;19.30;99.90;;;19.09;100.00;100613.00;4985467;28;20189;-80
2023/07/22 08:13:42;;;;;;;11.57;6.70;;;19.20;99.90;;;19.11;100.00;100616.38;4980018;28;20046;-80
2023/07/22 08:16:11;;;;;;;9.75;6.80;;;19.20;99.90;;;19.07;100.00;100620.75;4986737;28;20558;-80
2023/07/22 08:18:37;;;;;;;13.30;7.35;;;19.30;99.90;;;18.93;100.00;100614.91;4988779;28;20475;-80
2023/07/22 08:21:06;;;;;;;9.05;5.93;;;19.10;99.90;;;19.34;100.00;100607.78;4987513;28;20564;-81
2023/07/22 08:23:33;;;;;;;10.23;6.63;;;19.30;99.90;;;19.35;100.00;100601.97;4987226;28;20096;-83
2023/07/22 08:25:59;;;;;;;10.07;6.10;;;19.50;99.90;;;19.42;100.00;100601.69;4988801;28;20118;-83
2023/07/22 08:28:25;;;;;;;9.15;6.57;;;19.50;99.90;;;19.71;100.00;100614.13;4983535;28;20038;-82
2023/07/22 08:30:55;;;;;;;11.45;6.47;;;19.80;99.90;;;19.43;100.00;100610.84;4985404;28;20035;-80
2023/07/22 08:33:25;;;;;;;13.45;6.93;;;19.80;99.90;;;19.02;100.00;100618.00;4983998;28;20044;-80
2023/07/22 08:35:54;;;;;;;11.25;6.40;;;19.40;99.90;;;18.91;100.00;100619.06;4974381;28;20410;-79
2023/07/22 08:38:19;;;;;;;13.20;6.95;;;19.20;99.90;;;18.53;100.00;100602.66;4983184;28;20066;-80
2023/07/22 08:40:53;;;;;;;11.05;6.50;;;19.00;99.90;;;18.78;100.00;100631.47;4992114;28;20081;-82
2023/07/22 08:43:22;;;;;;;11.98;6.57;;;19.00;99.90;;;19.22;100.00;100619.94;4988182;28;20039;-83
2023/07/22 08:45:52;;;;;;;9.93;6.25;;;19.30;99.90;;;19.43;100.00;100610.84;4994343;28;20051;-85
2023/07/22 08:48:18;;;;;;;11.68;7.10;;;19.50;99.90;;;19.67;100.00;100622.13;4985490;28;20054;-82
2023/07/22 08:51:04;;;;;;;10.57;6.53;;;19.70;99.90;;;19.94;100.00;100619.09;4992534;28;20034;-85
2023/07/22 08:53:33;;;;;;;12.95;7.28;;;20.10;99.90;;;20.18;100.00;100620.38;5000434;28;20132;-80
2023/07/22 08:55:59;;;;;;;14.02;7.32;;;20.40;99.90;;;20.39;99.25;100605.34;5002482;28;20538;-81
2023/07/22 08:58:26;;;;;;;11.38;6.60;;;20.60;99.90;;;20.68;98.20;100601.03;5005317;28;20070;-82
2023/07/22 09:00:52;;;;;;;9.98;7.47;;;20.90;99.90;;;20.82;94.41;100610.41;4989488;28;20042;-79
2023/07/22 09:03:19;;;;;;;9.70;6.97;;;21.10;99.90;;;;;;4995729;28;20050;-81
2023/07/22 09:05:46;;;;;;;11.87;7.67;;;21.20;99.90;;;21.17;92.14;100618.75;4984500;28;20039;-84
2023/07/22 09:08:12;;;;;;;10.88;7.22;;;21.40;99.70;;;20.95;89.11;100610.88;4994116;28;20795;-81
2023/07/22 09:10:39;;;;;;;10.98;7.65;;;21.40;98.40;;;21.21;90.30;100613.44;4988012;28;20090;-79
2023/07/22 09:13:05;;;;;;;10.73;7.70;;;21.40;98.90;;;21.22;90.76;100612.34;4984507;28;20089;-80
2023/07/22 09:15:36;;;;;;;10.70;7.72;;;21.50;98.90;;;20.95;90.68;100599.78;4980650;28;20035;-82
2023/07/22 09:18:03;;;;;;;13.23;8.02;;;21.20;97.60;;;20.61;91.29;100594.97;4992092;28;20054;-79
2023/07/22 09:20:29;;;;;;;11.35;8.13;;;21.00;98.20;;;20.72;91.40;100591.03;4983970;28;20030;-82
2023/07/22 09:22:57;;;;;;;13.95;9.05;;;21.10;98.50;;;20.18;94.00;100596.31;5001508;28;20045;-84
2023/07/22 09:25:25;;;;;;;11.88;8.48;;;20.70;98.50;;;19.80;95.44;100595.81;4993321;28;20368;-79
2023/07/22 09:27:54;;;;;;;17.08;8.95;;;20.30;98.80;;;19.80;100.00;100604.13;4989666;28;20048;-80
2023/07/22 09:30:32;;;;;;;12.25;8.88;;;20.10;99.90;;;19.53;100.00;100605.28;4993251;28;20610;-79
2023/07/22 09:33:02;;;;;;;13.20;9.03;;;20.00;99.90;;;19.95;100.00;100612.44;5001725;28;20070;-79
2023/07/22 09:35:46;;;;;;;13.38;9.85;;;20.10;99.90;;;20.05;100.00;100599.66;5001611;28;20034;-78
2023/07/22 09:38:15;;;;;;;13.82;9.93;;;20.30;99.90;;;20.38;100.00;100600.91;5010550;28;20035;-77
2023/07/22 09:40:41;;;;;;;13.60;9.45;;;20.50;99.90;;;;;;4992626;28;20042;-81
2023/07/22 09:43:12;;;;;;;14.15;9.40;;;21.00;99.50;;;21.35;90.15;100596.97;5010262;28;20042;-79
2023/07/22 09:45:37;;;;;;;13.52;8.27;;;21.40;99.00;;;21.91;85.81;100587.28;5004888;28;20034;-79
2023/07/22 09:48:08;;;;;;;10.48;7.90;;;21.80;98.10;;;22.18;75.31;100571.97;5013702;28;20050;-80
2023/07/22 09:50:36;;;;;;;11.30;7.90;;;22.40;94.80;;;22.22;70.35;100567.47;5012528;28;20038;-80
2023/07/22 09:53:03;;;;;;;11.57;7.63;;;22.50;93.20;;;21.65;75.77;100573.69;5030126;28;20061;-79
2023/07/22 09:55:31;;;;;;;8.95;6.78;;;22.30;93.80;;;22.32;73.49;100577.63;4996724;28;20038;-79
2023/07/22 09:58:02;;;;;;;11.60;7.22;;;22.50;93.60;;;22.42;72.58;100571.94;4996016;28;20398;-79
2023/07/22 10:00:31;;;;;;;11.07;7.13;;;22.70;93.20;;;22.63;69.32;100573.63;4999881;28;20030;-80